Hadera, Israel
Current Conditions -  °F | °C
As of 5:50 AM on Friday 28 Nov 2014 (Local Time) from LLSD Reporting Station
Clear Clear  
Wind Chill: 55°   Ceiling: Unl
Heat Index: 55°   Visibility: 6mi
Dew Point: 52°   Wind: 6mph
Humidity: 88%   Direction: 130°SE
Pressure: 30.15"   Gusts: NA
Location:  32.45°N, 34.92°E
Report Text: LLSD 280350Z 13005KT CAVOK 13/11 Q1021 RMK SCT080
Loading
Personal Weather Stations






























Interactive Weather Map New forecast layout! Learn more

10-Day Weather Forecast

Advertisements
Track Severe Weather on mobile